sensor_id;sensor_type;location;lat;lon;timestamp;temperature;humidity
17483;DHT22;8858;52.308;20.994;2022-09-09T00:01:54;15.40;99.90
17483;DHT22;8858;52.308;20.994;2022-09-09T00:04:30;15.30;99.90
17483;DHT22;8858;52.308;20.994;2022-09-09T00:07:03;15.30;99.90
17483;DHT22;8858;52.308;20.994;2022-09-09T00:09:39;15.30;99.90
17483;DHT22;8858;52.308;20.994;2022-09-09T00:12:11;15.30;99.90
17483;DHT22;8858;52.308;20.994;2022-09-09T00:14:47;15.30;99.90
17483;DHT22;8858;52.308;20.994;2022-09-09T00:17:31;15.20;99.90
17483;DHT22;8858;52.308;20.994;2022-09-09T00:20:03;15.20;99.90
17483;DHT22;8858;52.308;20.994;2022-09-09T00:22:44;15.20;99.90
17483;DHT22;8858;52.308;20.994;2022-09-09T00:25:18;15.10;99.90
17483;DHT22;8858;52.308;20.994;2022-09-09T00:27:52;15.10;99.90
17483;DHT22;8858;52.308;20.994;2022-09-09T00:30:23;15.10;99.90
17483;DHT22;8858;52.308;20.994;2022-09-09T00:33:00;15.10;99.90
17483;DHT22;8858;52.308;20.994;2022-09-09T00:35:34;15.00;99.90
17483;DHT22;8858;52.308;20.994;2022-09-09T00:38:12;15.00;99.90
17483;DHT22;8858;52.308;20.994;2022-09-09T00:40:48;15.00;99.90
17483;DHT22;8858;52.308;20.994;2022-09-09T00:43:26;14.90;99.90
17483;DHT22;8858;52.308;20.994;2022-09-09T00:46:14;14.80;99.90
17483;DHT22;8858;52.308;20.994;2022-09-09T00:48:52;14.80;99.90
17483;DHT22;8858;52.308;20.994;2022-09-09T00:51:30;14.80;99.90
17483;DHT22;8858;52.308;20.994;2022-09-09T00:57:07;14.80;99.90
17483;DHT22;8858;52.308;20.994;2022-09-09T00:59:47;14.80;99.90
17483;DHT22;8858;52.308;20.994;2022-09-09T01:02:27;14.70;99.90
17483;DHT22;8858;52.308;20.994;2022-09-09T01:05:04;14.60;99.90
17483;DHT22;8858;52.308;20.994;2022-09-09T01:07:34;14.70;99.90
17483;DHT22;8858;52.308;20.994;2022-09-09T01:10:07;14.70;99.90
17483;DHT22;8858;52.308;20.994;2022-09-09T01:12:41;14.70;99.90
17483;DHT22;8858;52.308;20.994;2022-09-09T01:15:19;14.80;99.90
17483;DHT22;8858;52.308;20.994;2022-09-09T01:17:57;14.70;99.90
17483;DHT22;8858;52.308;20.994;2022-09-09T01:20:41;14.70;99.90
17483;DHT22;8858;52.308;20.994;2022-09-09T01:23:35;14.60;99.90
17483;DHT22;8858;52.308;20.994;2022-09-09T01:26:35;14.60;99.90
17483;DHT22;8858;52.308;20.994;2022-09-09T01:29:12;14.60;99.90
17483;DHT22;8858;52.308;20.994;2022-09-09T01:31:53;14.60;99.90
17483;DHT22;8858;52.308;20.994;2022-09-09T01:34:24;14.50;99.90
17483;DHT22;8858;52.308;20.994;2022-09-09T01:36:57;14.50;99.90
17483;DHT22;8858;52.308;20.994;2022-09-09T01:39:28;14.50;99.90
17483;DHT22;8858;52.308;20.994;2022-09-09T01:42:03;14.60;99.90
17483;DHT22;8858;52.308;20.994;2022-09-09T01:44:33;14.60;99.90
17483;DHT22;8858;52.308;20.994;2022-09-09T01:47:03;14.60;99.90
17483;DHT22;8858;52.308;20.994;2022-09-09T01:49:32;14.60;99.90
17483;DHT22;8858;52.308;20.994;2022-09-09T01:52:09;14.60;99.90
17483;DHT22;8858;52.308;20.994;2022-09-09T01:54:38;14.60;99.90
17483;DHT22;8858;52.308;20.994;2022-09-09T01:57:18;14.50;99.90
17483;DHT22;8858;52.308;20.994;2022-09-09T01:59:59;14.50;99.90
17483;DHT22;8858;52.308;20.994;2022-09-09T02:02:46;14.50;99.90
17483;DHT22;8858;52.308;20.994;2022-09-09T02:05:34;14.50;99.90
17483;DHT22;8858;52.308;20.994;2022-09-09T02:08:20;14.50;99.90
17483;DHT22;8858;52.308;20.994;2022-09-09T02:11:00;14.50;99.90
17483;DHT22;8858;52.308;20.994;2022-09-09T02:13:44;14.50;99.90
17483;DHT22;8858;52.308;20.994;2022-09-09T02:16:18;14.50;99.90
17483;DHT22;8858;52.308;20.994;2022-09-09T02:18:56;14.50;99.90
17483;DHT22;8858;52.308;20.994;2022-09-09T02:21:42;14.40;99.90
17483;DHT22;8858;52.308;20.994;2022-09-09T02:24:15;14.40;99.90
17483;DHT22;8858;52.308;20.994;2022-09-09T02:26:53;14.50;99.90
17483;DHT22;8858;52.308;20.994;2022-09-09T02:29:27;14.50;99.90
17483;DHT22;8858;52.308;20.994;2022-09-09T02:31:59;14.40;99.90
17483;DHT22;8858;52.308;20.994;2022-09-09T02:34:40;14.40;99.90
17483;DHT22;8858;52.308;20.994;2022-09-09T02:37:11;14.50;99.90
17483;DHT22;8858;52.308;20.994;2022-09-09T02:39:44;14.40;99.90
17483;DHT22;8858;52.308;20.994;2022-09-09T02:42:19;14.50;99.90
17483;DHT22;8858;52.308;20.994;2022-09-09T02:44:51;14.50;99.90
17483;DHT22;8858;52.308;20.994;2022-09-09T02:47:33;14.50;99.90
17483;DHT22;8858;52.308;20.994;2022-09-09T02:50:13;14.50;99.90
17483;DHT22;8858;52.308;20.994;2022-09-09T02:52:56;14.50;99.90
17483;DHT22;8858;52.308;20.994;2022-09-09T02:55:34;14.50;99.90
17483;DHT22;8858;52.308;20.994;2022-09-09T02:58:13;14.40;99.90
17483;DHT22;8858;52.308;20.994;2022-09-09T03:00:52;14.40;99.90
17483;DHT22;8858;52.308;20.994;2022-09-09T03:03:22;14.50;99.90
17483;DHT22;8858;52.308;20.994;2022-09-09T03:05:51;14.50;99.90
17483;DHT22;8858;52.308;20.994;2022-09-09T03:08:23;14.50;99.90
17483;DHT22;8858;52.308;20.994;2022-09-09T03:10:58;14.50;99.90
17483;DHT22;8858;52.308;20.994;2022-09-09T03:13:35;14.50;99.90
17483;DHT22;8858;52.308;20.994;2022-09-09T03:16:06;14.40;99.90
17483;DHT22;8858;52.308;20.994;2022-09-09T03:18:40;14.40;99.90
17483;DHT22;8858;52.308;20.994;2022-09-09T03:21:09;14.40;99.90
17483;DHT22;8858;52.308;20.994;2022-09-09T03:23:39;14.40;99.90
17483;DHT22;8858;52.308;20.994;2022-09-09T03:26:07;14.40;99.90
17483;DHT22;8858;52.308;20.994;2022-09-09T03:28:42;14.40;99.90
17483;DHT22;8858;52.308;20.994;2022-09-09T03:31:16;14.40;99.90
17483;DHT22;8858;52.308;20.994;2022-09-09T03:33:45;14.40;99.90
17483;DHT22;8858;52.308;20.994;2022-09-09T03:36:19;14.30;99.90
17483;DHT22;8858;52.308;20.994;2022-09-09T03:38:48;14.30;99.90
17483;DHT22;8858;52.308;20.994;2022-09-09T03:41:17;14.30;99.90
17483;DHT22;8858;52.308;20.994;2022-09-09T03:43:46;14.30;99.90
17483;DHT22;8858;52.308;20.994;2022-09-09T03:46:15;14.30;99.90
17483;DHT22;8858;52.308;20.994;2022-09-09T03:48:45;14.40;99.90
17483;DHT22;8858;52.308;20.994;2022-09-09T03:51:14;14.40;99.90
17483;DHT22;8858;52.308;20.994;2022-09-09T03:53:44;14.30;99.90
17483;DHT22;8858;52.308;20.994;2022-09-09T03:56:12;14.30;99.90
17483;DHT22;8858;52.308;20.994;2022-09-09T03:58:41;14.40;99.90
17483;DHT22;8858;52.308;20.994;2022-09-09T04:01:15;14.40;99.90
17483;DHT22;8858;52.308;20.994;2022-09-09T04:03:45;14.40;99.90
17483;DHT22;8858;52.308;20.994;2022-09-09T04:06:14;14.40;99.90
17483;DHT22;8858;52.308;20.994;2022-09-09T04:08:46;14.40;99.90
17483;DHT22;8858;52.308;20.994;2022-09-09T04:11:18;14.30;99.90
17483;DHT22;8858;52.308;20.994;2022-09-09T04:13:49;14.40;99.90
17483;DHT22;8858;52.308;20.994;2022-09-09T04:16:20;14.40;99.90
17483;DHT22;8858;52.308;20.994;2022-09-09T04:18:50;14.40;99.90
17483;DHT22;8858;52.308;20.994;2022-09-09T04:21:20;14.30;99.90
17483;DHT22;8858;52.308;20.994;2022-09-09T04:23:48;14.40;99.90
17483;DHT22;8858;52.308;20.994;2022-09-09T04:26:18;14.40;99.90
17483;DHT22;8858;52.308;20.994;2022-09-09T04:28:47;14.40;99.90
17483;DHT22;8858;52.308;20.994;2022-09-09T04:31:21;14.40;99.90
17483;DHT22;8858;52.308;20.994;2022-09-09T04:33:53;14.40;99.90
17483;DHT22;8858;52.308;20.994;2022-09-09T04:36:25;14.30;99.90
17483;DHT22;8858;52.308;20.994;2022-09-09T04:38:59;14.30;99.90
17483;DHT22;8858;52.308;20.994;2022-09-09T04:41:28;14.30;99.90
17483;DHT22;8858;52.308;20.994;2022-09-09T04:43:58;14.30;99.90
17483;DHT22;8858;52.308;20.994;2022-09-09T04:46:33;14.30;99.90
17483;DHT22;8858;52.308;20.994;2022-09-09T04:49:02;14.30;99.90
17483;DHT22;8858;52.308;20.994;2022-09-09T04:51:32;14.30;99.90
17483;DHT22;8858;52.308;20.994;2022-09-09T04:54:01;14.30;99.90
17483;DHT22;8858;52.308;20.994;2022-09-09T04:56:30;14.30;99.90
17483;DHT22;8858;52.308;20.994;2022-09-09T04:59:00;14.40;99.90
17483;DHT22;8858;52.308;20.994;2022-09-09T05:01:51;14.40;99.90
17483;DHT22;8858;52.308;20.994;2022-09-09T05:04:22;14.40;99.90
17483;DHT22;8858;52.308;20.994;2022-09-09T05:06:50;14.30;99.90
17483;DHT22;8858;52.308;20.994;2022-09-09T05:09:19;14.30;99.90
17483;DHT22;8858;52.308;20.994;2022-09-09T05:11:48;14.30;99.90
17483;DHT22;8858;52.308;20.994;2022-09-09T05:14:23;14.30;99.90
17483;DHT22;8858;52.308;20.994;2022-09-09T05:16:53;14.30;99.90
17483;DHT22;8858;52.308;20.994;2022-09-09T05:19:23;14.30;99.90
17483;DHT22;8858;52.308;20.994;2022-09-09T05:21:52;14.30;99.90
17483;DHT22;8858;52.308;20.994;2022-09-09T05:24:27;14.30;99.90
17483;DHT22;8858;52.308;20.994;2022-09-09T05:26:57;14.40;99.90
17483;DHT22;8858;52.308;20.994;2022-09-09T05:29:27;14.40;99.90
17483;DHT22;8858;52.308;20.994;2022-09-09T05:31:57;14.40;99.90
17483;DHT22;8858;52.308;20.994;2022-09-09T05:34:26;14.30;99.90
17483;DHT22;8858;52.308;20.994;2022-09-09T05:36:54;14.30;99.90
17483;DHT22;8858;52.308;20.994;2022-09-09T05:39:23;14.30;99.90
17483;DHT22;8858;52.308;20.994;2022-09-09T05:41:52;14.40;99.90
17483;DHT22;8858;52.308;20.994;2022-09-09T05:44:21;14.30;99.90
17483;DHT22;8858;52.308;20.994;2022-09-09T05:46:54;14.40;99.90
17483;DHT22;8858;52.308;20.994;2022-09-09T05:49:26;14.30;99.90
17483;DHT22;8858;52.308;20.994;2022-09-09T05:51:54;14.30;99.90
17483;DHT22;8858;52.308;20.994;2022-09-09T05:54:23;14.30;99.90
17483;DHT22;8858;52.308;20.994;2022-09-09T05:56:54;14.30;99.90
17483;DHT22;8858;52.308;20.994;2022-09-09T05:59:23;14.30;99.90
17483;DHT22;8858;52.308;20.994;2022-09-09T06:01:54;14.30;99.90
17483;DHT22;8858;52.308;20.994;2022-09-09T06:04:35;14.40;99.90
17483;DHT22;8858;52.308;20.994;2022-09-09T06:07:04;14.40;99.90
17483;DHT22;8858;52.308;20.994;2022-09-09T06:09:36;14.40;99.90
17483;DHT22;8858;52.308;20.994;2022-09-09T06:12:07;14.40;99.90
17483;DHT22;8858;52.308;20.994;2022-09-09T06:14:37;14.40;99.90
17483;DHT22;8858;52.308;20.994;2022-09-09T06:17:12;14.40;99.90
17483;DHT22;8858;52.308;20.994;2022-09-09T06:19:43;14.40;99.90
17483;DHT22;8858;52.308;20.994;2022-09-09T06:22:11;14.40;99.90
17483;DHT22;8858;52.308;20.994;2022-09-09T06:24:45;14.40;99.90
17483;DHT22;8858;52.308;20.994;2022-09-09T06:27:13;14.40;99.90
17483;DHT22;8858;52.308;20.994;2022-09-09T06:29:42;14.40;99.90
17483;DHT22;8858;52.308;20.994;2022-09-09T06:32:11;14.40;99.90
17483;DHT22;8858;52.308;20.994;2022-09-09T06:34:39;14.40;99.90
17483;DHT22;8858;52.308;20.994;2022-09-09T06:37:10;14.40;99.90
17483;DHT22;8858;52.308;20.994;2022-09-09T06:39:46;14.50;99.90
17483;DHT22;8858;52.308;20.994;2022-09-09T06:42:16;14.50;99.90
17483;DHT22;8858;52.308;20.994;2022-09-09T06:44:47;14.50;99.90
17483;DHT22;8858;52.308;20.994;2022-09-09T06:47:23;14.50;99.90
17483;DHT22;8858;52.308;20.994;2022-09-09T06:49:57;14.50;99.90
17483;DHT22;8858;52.308;20.994;2022-09-09T06:52:28;14.50;99.90
17483;DHT22;8858;52.308;20.994;2022-09-09T06:54:56;14.50;99.90
17483;DHT22;8858;52.308;20.994;2022-09-09T06:57:26;14.50;99.90
17483;DHT22;8858;52.308;20.994;2022-09-09T07:00:16;14.50;99.90
17483;DHT22;8858;52.308;20.994;2022-09-09T07:02:45;14.60;99.90
17483;DHT22;8858;52.308;20.994;2022-09-09T07:05:13;14.60;99.90
17483;DHT22;8858;52.308;20.994;2022-09-09T07:07:45;14.60;99.90
17483;DHT22;8858;52.308;20.994;2022-09-09T07:10:19;14.60;99.90
17483;DHT22;8858;52.308;20.994;2022-09-09T07:12:50;14.70;99.90
17483;DHT22;8858;52.308;20.994;2022-09-09T07:15:24;14.60;99.90
17483;DHT22;8858;52.308;20.994;2022-09-09T07:17:55;14.60;99.90
17483;DHT22;8858;52.308;20.994;2022-09-09T07:20:23;14.60;99.90
17483;DHT22;8858;52.308;20.994;2022-09-09T07:22:55;14.60;99.90
17483;DHT22;8858;52.308;20.994;2022-09-09T07:25:25;14.60;99.90
17483;DHT22;8858;52.308;20.994;2022-09-09T07:27:57;14.50;99.90
17483;DHT22;8858;52.308;20.994;2022-09-09T07:30:25;14.60;99.90
17483;DHT22;8858;52.308;20.994;2022-09-09T07:32:56;14.60;99.90
17483;DHT22;8858;52.308;20.994;2022-09-09T07:35:26;14.60;99.90
17483;DHT22;8858;52.308;20.994;2022-09-09T07:37:55;14.60;99.90
17483;DHT22;8858;52.308;20.994;2022-09-09T07:40:25;14.60;99.90
17483;DHT22;8858;52.308;20.994;2022-09-09T07:42:53;14.60;99.90
17483;DHT22;8858;52.308;20.994;2022-09-09T07:45:21;14.60;99.90
17483;DHT22;8858;52.308;20.994;2022-09-09T07:47:55;14.60;99.90
17483;DHT22;8858;52.308;20.994;2022-09-09T07:50:24;14.60;99.90
17483;DHT22;8858;52.308;20.994;2022-09-09T07:52:53;14.60;99.90
17483;DHT22;8858;52.308;20.994;2022-09-09T07:55:25;14.60;99.90
17483;DHT22;8858;52.308;20.994;2022-09-09T07:57:57;14.70;99.90
17483;DHT22;8858;52.308;20.994;2022-09-09T08:00:26;14.70;99.90
17483;DHT22;8858;52.308;20.994;2022-09-09T08:02:56;14.70;99.90
17483;DHT22;8858;52.308;20.994;2022-09-09T08:05:29;14.80;99.90
17483;DHT22;8858;52.308;20.994;2022-09-09T08:07:58;14.80;99.90
17483;DHT22;8858;52.308;20.994;2022-09-09T08:10:29;14.80;99.90
17483;DHT22;8858;52.308;20.994;2022-09-09T08:12:58;14.80;99.90
17483;DHT22;8858;52.308;20.994;2022-09-09T08:15:45;14.80;99.90
17483;DHT22;8858;52.308;20.994;2022-09-09T08:18:15;14.80;99.90
17483;DHT22;8858;52.308;20.994;2022-09-09T08:20:44;14.80;99.90
17483;DHT22;8858;52.308;20.994;2022-09-09T08:23:12;14.80;99.90
17483;DHT22;8858;52.308;20.994;2022-09-09T08:25:43;14.80;99.90
17483;DHT22;8858;52.308;20.994;2022-09-09T08:28:13;14.80;99.90
17483;DHT22;8858;52.308;20.994;2022-09-09T08:30:43;14.80;99.90
17483;DHT22;8858;52.308;20.994;2022-09-09T08:33:18;14.80;99.90
17483;DHT22;8858;52.308;20.994;2022-09-09T08:35:50;14.80;99.90
17483;DHT22;8858;52.308;20.994;2022-09-09T08:38:20;14.80;99.90
17483;DHT22;8858;52.308;20.994;2022-09-09T08:40:52;14.90;99.90
17483;DHT22;8858;52.308;20.994;2022-09-09T08:43:29;14.90;99.90
17483;DHT22;8858;52.308;20.994;2022-09-09T08:46:05;14.90;99.90
17483;DHT22;8858;52.308;20.994;2022-09-09T08:48:44;14.90;99.90
17483;DHT22;8858;52.308;20.994;2022-09-09T08:51:15;14.90;99.90
17483;DHT22;8858;52.308;20.994;2022-09-09T08:53:49;14.90;99.90
17483;DHT22;8858;52.308;20.994;2022-09-09T08:56:27;14.90;99.90
17483;DHT22;8858;52.308;20.994;2022-09-09T08:59:02;14.90;99.90
17483;DHT22;8858;52.308;20.994;2022-09-09T09:01:55;14.90;99.90
17483;DHT22;8858;52.308;20.994;2022-09-09T09:04:41;14.90;99.90
17483;DHT22;8858;52.308;20.994;2022-09-09T09:07:21;15.00;99.90
17483;DHT22;8858;52.308;20.994;2022-09-09T09:10:03;15.00;99.90
17483;DHT22;8858;52.308;20.994;2022-09-09T09:12:56;15.10;99.90
17483;DHT22;8858;52.308;20.994;2022-09-09T09:15:31;15.00;99.90
17483;DHT22;8858;52.308;20.994;2022-09-09T09:18:05;15.10;99.90
17483;DHT22;8858;52.308;20.994;2022-09-09T09:20:42;15.00;99.90
17483;DHT22;8858;52.308;20.994;2022-09-09T09:23:18;15.10;99.90
17483;DHT22;8858;52.308;20.994;2022-09-09T09:25:55;15.10;99.90
17483;DHT22;8858;52.308;20.994;2022-09-09T09:28:29;15.10;99.90
17483;DHT22;8858;52.308;20.994;2022-09-09T09:31:06;15.20;99.90
17483;DHT22;8858;52.308;20.994;2022-09-09T09:33:44;15.20;99.90
17483;DHT22;8858;52.308;20.994;2022-09-09T09:36:19;15.20;99.90
17483;DHT22;8858;52.308;20.994;2022-09-09T09:38:54;15.20;99.90
17483;DHT22;8858;52.308;20.994;2022-09-09T09:41:47;15.20;99.90
17483;DHT22;8858;52.308;20.994;2022-09-09T09:44:25;15.20;99.90
17483;DHT22;8858;52.308;20.994;2022-09-09T09:47:06;15.20;99.90
17483;DHT22;8858;52.308;20.994;2022-09-09T09:49:37;15.20;99.90
17483;DHT22;8858;52.308;20.994;2022-09-09T09:52:17;15.20;99.90
17483;DHT22;8858;52.308;20.994;2022-09-09T09:54:49;15.20;99.90
17483;DHT22;8858;52.308;20.994;2022-09-09T09:57:24;15.20;99.90
17483;DHT22;8858;52.308;20.994;2022-09-09T10:00:04;15.20;99.90
17483;DHT22;8858;52.308;20.994;2022-09-09T10:02:42;15.20;99.90
17483;DHT22;8858;52.308;20.994;2022-09-09T10:05:20;15.20;99.90
17483;DHT22;8858;52.308;20.994;2022-09-09T10:08:02;15.20;99.90
17483;DHT22;8858;52.308;20.994;2022-09-09T10:13:32;15.20;99.90
17483;DHT22;8858;52.308;20.994;2022-09-09T10:16:17;15.20;99.90
17483;DHT22;8858;52.308;20.994;2022-09-09T10:18:57;15.20;99.90
17483;DHT22;8858;52.308;20.994;2022-09-09T10:21:48;15.20;99.90
17483;DHT22;8858;52.308;20.994;2022-09-09T10:27:36;15.30;99.90
17483;DHT22;8858;52.308;20.994;2022-09-09T10:30:15;15.30;99.90
17483;DHT22;8858;52.308;20.994;2022-09-09T10:32:48;15.30;99.90
17483;DHT22;8858;52.308;20.994;2022-09-09T10:35:27;15.30;99.90
17483;DHT22;8858;52.308;20.994;2022-09-09T10:38:18;15.30;99.90
17483;DHT22;8858;52.308;20.994;2022-09-09T10:41:16;15.30;99.90
17483;DHT22;8858;52.308;20.994;2022-09-09T10:44:12;15.30;99.90
17483;DHT22;8858;52.308;20.994;2022-09-09T10:46:53;15.40;99.90
17483;DHT22;8858;52.308;20.994;2022-09-09T10:49:49;15.40;99.90
17483;DHT22;8858;52.308;20.994;2022-09-09T10:52:27;15.40;99.90
17483;DHT22;8858;52.308;20.994;2022-09-09T10:55:02;15.40;99.90
17483;DHT22;8858;52.308;20.994;2022-09-09T10:57:40;15.40;99.90
17483;DHT22;8858;52.308;20.994;2022-09-09T11:00:16;15.40;99.90
17483;DHT22;8858;52.308;20.994;2022-09-09T11:02:51;15.40;99.90
17483;DHT22;8858;52.308;20.994;2022-09-09T11:05:28;15.40;99.90
17483;DHT22;8858;52.308;20.994;2022-09-09T11:08:01;15.40;99.90
17483;DHT22;8858;52.308;20.994;2022-09-09T11:10:37;15.50;99.90
17483;DHT22;8858;52.308;20.994;2022-09-09T11:13:15;15.50;99.90
17483;DHT22;8858;52.308;20.994;2022-09-09T11:15:49;15.50;99.90
17483;DHT22;8858;52.308;20.994;2022-09-09T11:18:22;15.50;99.90
17483;DHT22;8858;52.308;20.994;2022-09-09T11:20:58;15.50;99.90
17483;DHT22;8858;52.308;20.994;2022-09-09T11:23:33;15.50;99.90
17483;DHT22;8858;52.308;20.994;2022-09-09T11:26:12;15.50;99.90
17483;DHT22;8858;52.308;20.994;2022-09-09T11:28:53;15.50;99.90
17483;DHT22;8858;52.308;20.994;2022-09-09T11:31:43;15.50;99.90
17483;DHT22;8858;52.308;20.994;2022-09-09T11:34:23;15.50;99.90
17483;DHT22;8858;52.308;20.994;2022-09-09T11:37:37;15.50;99.90
17483;DHT22;8858;52.308;20.994;2022-09-09T11:40:15;15.50;99.90
17483;DHT22;8858;52.308;20.994;2022-09-09T11:42:46;15.60;99.90
17483;DHT22;8858;52.308;20.994;2022-09-09T11:45:23;15.60;99.90
17483;DHT22;8858;52.308;20.994;2022-09-09T11:47:54;15.60;99.90
17483;DHT22;8858;52.308;20.994;2022-09-09T11:50:36;15.60;99.90
17483;DHT22;8858;52.308;20.994;2022-09-09T11:53:24;15.60;99.90
17483;DHT22;8858;52.308;20.994;2022-09-09T11:56:11;15.60;99.90
17483;DHT22;8858;52.308;20.994;2022-09-09T11:58:44;15.70;99.90
17483;DHT22;8858;52.308;20.994;2022-09-09T12:01:39;15.70;99.90
17483;DHT22;8858;52.308;20.994;2022-09-09T12:04:31;15.70;99.90
17483;DHT22;8858;52.308;20.994;2022-09-09T12:07:04;15.70;99.90
17483;DHT22;8858;52.308;20.994;2022-09-09T12:09:49;15.70;99.90
17483;DHT22;8858;52.308;20.994;2022-09-09T12:12:24;15.70;99.90
17483;DHT22;8858;52.308;20.994;2022-09-09T12:15:03;15.70;99.90
17483;DHT22;8858;52.308;20.994;2022-09-09T12:17:46;15.70;99.90
17483;DHT22;8858;52.308;20.994;2022-09-09T12:20:18;15.70;99.90
17483;DHT22;8858;52.308;20.994;2022-09-09T12:23:11;15.70;99.90
17483;DHT22;8858;52.308;20.994;2022-09-09T12:25:58;15.70;99.90
17483;DHT22;8858;52.308;20.994;2022-09-09T12:28:50;15.70;99.90
17483;DHT22;8858;52.308;20.994;2022-09-09T12:31:24;15.70;99.90
17483;DHT22;8858;52.308;20.994;2022-09-09T12:33:54;15.70;99.90
17483;DHT22;8858;52.308;20.994;2022-09-09T12:36:27;15.70;99.90
17483;DHT22;8858;52.308;20.994;2022-09-09T12:39:14;15.70;99.90
17483;DHT22;8858;52.308;20.994;2022-09-09T12:41:52;15.70;99.90
17483;DHT22;8858;52.308;20.994;2022-09-09T12:44:24;15.70;99.90
17483;DHT22;8858;52.308;20.994;2022-09-09T12:47:00;15.70;99.90
17483;DHT22;8858;52.308;20.994;2022-09-09T12:49:32;15.70;99.90
17483;DHT22;8858;52.308;20.994;2022-09-09T12:52:08;15.70;99.90
17483;DHT22;8858;52.308;20.994;2022-09-09T12:54:44;15.70;99.90
17483;DHT22;8858;52.308;20.994;2022-09-09T12:57:39;15.70;99.90
17483;DHT22;8858;52.308;20.994;2022-09-09T13:00:15;15.70;99.90
17483;DHT22;8858;52.308;20.994;2022-09-09T13:02:50;15.70;99.90
17483;DHT22;8858;52.308;20.994;2022-09-09T13:05:27;15.70;99.90
17483;DHT22;8858;52.308;20.994;2022-09-09T13:08:01;15.70;99.90
17483;DHT22;8858;52.308;20.994;2022-09-09T13:10:36;15.80;99.90
17483;DHT22;8858;52.308;20.994;2022-09-09T13:13:31;15.70;99.90
17483;DHT22;8858;52.308;20.994;2022-09-09T13:16:04;15.70;99.90
17483;DHT22;8858;52.308;20.994;2022-09-09T13:18:36;15.70;99.90
17483;DHT22;8858;52.308;20.994;2022-09-09T13:21:06;15.70;99.90
17483;DHT22;8858;52.308;20.994;2022-09-09T13:23:36;15.70;99.90
17483;DHT22;8858;52.308;20.994;2022-09-09T13:26:06;15.70;99.90
17483;DHT22;8858;52.308;20.994;2022-09-09T13:28:54;15.70;99.90
17483;DHT22;8858;52.308;20.994;2022-09-09T13:31:24;15.70;99.90
17483;DHT22;8858;52.308;20.994;2022-09-09T13:34:11;15.70;99.90
17483;DHT22;8858;52.308;20.994;2022-09-09T13:36:41;15.70;99.90
17483;DHT22;8858;52.308;20.994;2022-09-09T13:39:16;15.80;99.90
17483;DHT22;8858;52.308;20.994;2022-09-09T13:41:46;15.70;99.90
17483;DHT22;8858;52.308;20.994;2022-09-09T13:44:21;15.80;99.90
17483;DHT22;8858;52.308;20.994;2022-09-09T13:47:01;15.80;99.90
17483;DHT22;8858;52.308;20.994;2022-09-09T13:49:35;15.80;99.90
17483;DHT22;8858;52.308;20.994;2022-09-09T13:52:09;15.80;99.90
17483;DHT22;8858;52.308;20.994;2022-09-09T13:54:38;15.80;99.90
17483;DHT22;8858;52.308;20.994;2022-09-09T13:57:15;15.80;99.90
17483;DHT22;8858;52.308;20.994;2022-09-09T13:59:46;15.70;99.90
17483;DHT22;8858;52.308;20.994;2022-09-09T14:02:34;15.70;99.90
17483;DHT22;8858;52.308;20.994;2022-09-09T14:05:06;15.70;99.90
17483;DHT22;8858;52.308;20.994;2022-09-09T14:07:35;15.70;99.90
17483;DHT22;8858;52.308;20.994;2022-09-09T14:10:06;15.70;99.90
17483;DHT22;8858;52.308;20.994;2022-09-09T14:12:38;15.70;99.90
17483;DHT22;8858;52.308;20.994;2022-09-09T14:15:11;15.60;99.90
17483;DHT22;8858;52.308;20.994;2022-09-09T14:17:41;15.70;99.90
17483;DHT22;8858;52.308;20.994;2022-09-09T14:20:13;15.60;99.90
17483;DHT22;8858;52.308;20.994;2022-09-09T14:22:42;15.70;99.90
17483;DHT22;8858;52.308;20.994;2022-09-09T14:25:11;15.70;99.90
17483;DHT22;8858;52.308;20.994;2022-09-09T14:27:41;15.60;99.90
17483;DHT22;8858;52.308;20.994;2022-09-09T14:30:12;15.60;99.90
17483;DHT22;8858;52.308;20.994;2022-09-09T14:32:41;15.60;99.90
17483;DHT22;8858;52.308;20.994;2022-09-09T14:35:09;15.60;99.90
17483;DHT22;8858;52.308;20.994;2022-09-09T14:37:38;15.70;99.90
17483;DHT22;8858;52.308;20.994;2022-09-09T14:40:07;15.70;99.90
17483;DHT22;8858;52.308;20.994;2022-09-09T14:42:36;15.70;99.90
17483;DHT22;8858;52.308;20.994;2022-09-09T14:45:08;15.70;99.90
17483;DHT22;8858;52.308;20.994;2022-09-09T14:47:38;15.70;99.90
17483;DHT22;8858;52.308;20.994;2022-09-09T14:50:07;15.70;99.90
17483;DHT22;8858;52.308;20.994;2022-09-09T14:52:35;15.70;99.90
17483;DHT22;8858;52.308;20.994;2022-09-09T14:55:05;15.70;99.90
17483;DHT22;8858;52.308;20.994;2022-09-09T14:57:37;15.70;99.90
17483;DHT22;8858;52.308;20.994;2022-09-09T15:00:08;15.70;99.90
17483;DHT22;8858;52.308;20.994;2022-09-09T15:02:46;15.80;99.90
17483;DHT22;8858;52.308;20.994;2022-09-09T15:05:15;15.70;99.90
17483;DHT22;8858;52.308;20.994;2022-09-09T15:07:46;15.70;99.90
17483;DHT22;8858;52.308;20.994;2022-09-09T15:10:15;15.70;99.90
17483;DHT22;8858;52.308;20.994;2022-09-09T15:12:47;15.70;99.90
17483;DHT22;8858;52.308;20.994;2022-09-09T15:15:15;15.60;99.90
17483;DHT22;8858;52.308;20.994;2022-09-09T15:17:43;15.60;99.90
17483;DHT22;8858;52.308;20.994;2022-09-09T15:20:38;15.60;99.90
17483;DHT22;8858;52.308;20.994;2022-09-09T15:23:06;15.60;99.90
17483;DHT22;8858;52.308;20.994;2022-09-09T15:25:36;15.70;99.90
17483;DHT22;8858;52.308;20.994;2022-09-09T15:28:04;15.70;99.90
17483;DHT22;8858;52.308;20.994;2022-09-09T15:30:34;15.70;99.90
17483;DHT22;8858;52.308;20.994;2022-09-09T15:33:07;15.70;99.90
17483;DHT22;8858;52.308;20.994;2022-09-09T15:35:44;15.70;99.90
17483;DHT22;8858;52.308;20.994;2022-09-09T15:38:12;15.70;99.90
17483;DHT22;8858;52.308;20.994;2022-09-09T15:40:42;15.70;99.90
17483;DHT22;8858;52.308;20.994;2022-09-09T15:43:10;15.70;99.90
17483;DHT22;8858;52.308;20.994;2022-09-09T15:45:39;15.70;99.90
17483;DHT22;8858;52.308;20.994;2022-09-09T15:48:10;15.70;99.90
17483;DHT22;8858;52.308;20.994;2022-09-09T15:50:39;15.70;99.90
17483;DHT22;8858;52.308;20.994;2022-09-09T15:53:09;15.70;99.90
17483;DHT22;8858;52.308;20.994;2022-09-09T15:55:38;15.70;99.90
17483;DHT22;8858;52.308;20.994;2022-09-09T15:58:06;15.70;99.90
17483;DHT22;8858;52.308;20.994;2022-09-09T16:01:02;15.70;99.90
17483;DHT22;8858;52.308;20.994;2022-09-09T16:03:34;15.70;99.90
17483;DHT22;8858;52.308;20.994;2022-09-09T16:06:10;15.70;99.90
17483;DHT22;8858;52.308;20.994;2022-09-09T16:08:45;15.70;99.90
17483;DHT22;8858;52.308;20.994;2022-09-09T16:11:19;15.70;99.90
17483;DHT22;8858;52.308;20.994;2022-09-09T16:13:52;15.70;99.90
17483;DHT22;8858;52.308;20.994;2022-09-09T16:16:23;15.70;99.90
17483;DHT22;8858;52.308;20.994;2022-09-09T16:18:56;15.70;99.90
17483;DHT22;8858;52.308;20.994;2022-09-09T16:21:27;15.70;99.90
17483;DHT22;8858;52.308;20.994;2022-09-09T16:23:59;15.70;99.90
17483;DHT22;8858;52.308;20.994;2022-09-09T16:26:29;15.60;99.90